Time;durP1;ratioP1;P1;durP2;ratioP2;P2;SDS_P1;SDS_P2;PMS_P1;PMS_P2;Temp;Humidity;BMP_temperature;BMP_pressure;BME280_temperature;BME280_humidity;BME280_pressure;Samples;Min_cycle;Max_cycle;Signal;HPM_P1;HPM_P2
2022/10/03 00:02:06;;;;;;;7.53;4.30;;;;;;;12.75;93.93;100974.44;10184593;28;20054;-63
2022/10/03 00:07:23;;;;;;;;;;;;;;;12.77;92.51;100978.69;10173041;28;20070;-63
2022/10/03 00:12:48;;;;;;;9.75;3.40;;;;;;;12.78;90.33;100987.56;10216361;28;19926;-63
2022/10/03 00:18:19;;;;;;;6.82;2.78;;;;;;;12.81;89.30;100987.31;10182039;28;20043;-64
2022/10/03 00:23:35;;;;;;;6.80;3.10;;;;;;;12.85;90.20;100996.78;10191343;28;20047;-64
2022/10/03 00:28:43;;;;;;;6.93;4.43;;;;;;;12.67;91.94;100991.03;10190744;28;20102;-62
2022/10/03 00:34:03;;;;;;;8.32;4.32;;;;;;;12.59;93.20;100998.81;10196623;28;20043;-62
2022/10/03 00:39:30;;;;;;;9.13;4.78;;;;;;;12.45;93.94;100981.19;10201523;28;20594;-62
2022/10/03 00:45:01;;;;;;;7.05;4.53;;;;;;;12.51;93.69;100994.06;10189210;28;20056;-62
2022/10/03 00:50:30;;;;;;;7.25;4.68;;;;;;;12.47;94.07;100993.44;10187898;28;20681;-63
2022/10/03 00:56:07;;;;;;;7.25;6.25;;;;;;;12.38;97.55;101000.34;10189335;28;20081;-62
2022/10/03 01:01:45;;;;;;;7.78;5.85;;;;;;;12.45;96.92;101007.88;10211825;28;20495;-63
2022/10/03 01:07:07;;;;;;;7.22;6.38;;;;;;;12.36;96.75;101010.28;10201152;28;20039;-61
2022/10/03 01:12:14;;;;;;;6.68;5.97;;;;;;;12.43;98.05;101007.13;10188835;28;20058;-61
2022/10/03 01:17:46;;;;;;;7.35;5.57;;;;;;;12.45;97.79;101021.25;10194477;28;20055;-63
2022/10/03 01:23:01;;;;;;;9.38;5.75;;;;;;;12.44;97.76;101022.19;10193650;28;20513;-62
2022/10/03 01:34:11;;;;;;;6.40;5.68;;;;;;;12.33;96.27;101037.22;10190089;28;20051;-63
2022/10/03 01:39:41;;;;;;;8.45;5.50;;;;;;;12.30;98.04;101034.78;10188153;28;20589;-62
2022/10/03 01:44:43;;;;;;;9.27;6.57;;;;;;;12.31;97.92;101036.50;10180076;28;20058;-63
2022/10/03 01:50:04;;;;;;;12.48;6.53;;;;;;;12.31;97.39;101041.81;10188781;28;20047;-64
2022/10/03 01:55:31;;;;;;;9.00;6.30;;;;;;;12.18;98.53;101051.72;10188169;28;20043;-63
2022/10/03 02:01:00;;;;;;;9.02;7.10;;;;;;;12.02;97.30;101058.19;10186694;28;20044;-63
2022/10/03 02:06:07;;;;;;;10.70;7.22;;;;;;;11.96;98.17;101049.78;10186264;28;20054;-63
2022/10/03 02:11:10;;;;;;;9.27;7.00;;;;;;;11.96;96.80;101066.63;10189417;28;20669;-64
2022/10/03 02:16:38;;;;;;;9.73;7.20;;;;;;;11.88;97.61;101060.16;10191689;28;20102;-63
2022/10/03 02:21:52;;;;;;;7.40;5.50;;;;;;;11.98;98.64;101067.38;10199076;28;20062;-64
2022/10/03 02:27:12;;;;;;;;;;;;;;;12.06;96.27;101069.50;10186757;28;20054;-63
2022/10/03 02:32:28;;;;;;;10.23;7.22;;;;;;;12.10;95.70;101068.31;10191457;28;19934;-64
2022/10/03 02:37:45;;;;;;;8.68;6.63;;;;;;;12.13;96.41;101068.06;10184634;28;20079;-64
2022/10/03 02:43:17;;;;;;;8.55;7.43;;;;;;;12.14;96.46;101072.44;10190326;28;20058;-64
2022/10/03 02:48:47;;;;;;;8.98;7.63;;;;;;;12.12;96.62;101069.03;10188044;28;20051;-64
2022/10/03 02:54:22;;;;;;;9.43;7.70;;;;;;;12.17;95.58;101066.88;10186445;28;20047;-62
2022/10/03 02:59:48;;;;;;;11.10;7.70;;;;;;;12.12;97.23;101070.84;10183857;28;20047;-63
2022/10/03 03:04:58;;;;;;;13.82;9.48;;;;;;;12.25;97.12;101078.78;10184470;28;20062;-64
2022/10/03 03:10:18;;;;;;;10.70;8.65;;;;;;;12.09;97.67;101089.78;10200067;28;20063;-63
2022/10/03 03:15:19;;;;;;;12.88;8.13;;;;;;;12.17;96.96;101084.69;10188318;28;20606;-63
2022/10/03 03:20:53;;;;;;;12.15;8.85;;;;;;;12.22;96.77;101093.25;10189610;28;20051;-62
2022/10/03 03:26:29;;;;;;;12.45;8.55;;;;;;;12.27;96.72;101093.72;10184282;28;20792;-64
2022/10/03 03:31:48;;;;;;;9.32;8.30;;;;;;;12.23;96.37;101102.94;10182569;28;20054;-64
2022/10/03 03:36:59;;;;;;;12.20;8.05;;;;;;;12.23;95.68;101113.59;10184611;28;20089;-63
2022/10/03 03:42:00;;;;;;;11.15;7.90;;;;;;;12.17;95.69;101117.59;10200006;28;20067;-65
2022/10/03 03:47:20;;;;;;;9.50;8.20;;;;;;;12.10;95.88;101107.47;10185513;28;20059;-64
2022/10/03 03:52:34;;;;;;;8.25;6.75;;;;;;;12.11;95.14;101111.84;10185352;28;20047;-64
2022/10/03 03:57:51;;;;;;;9.43;7.85;;;;;;;12.08;93.95;101104.91;10188019;28;20111;-64
2022/10/03 04:03:06;;;;;;;10.57;6.95;;;;;;;11.91;95.35;101119.47;10193231;28;20566;-64
2022/10/03 04:08:11;;;;;;;9.27;7.22;;;;;;;12.01;95.44;101122.34;10197463;28;20654;-62
2022/10/03 04:13:21;;;;;;;9.88;6.63;;;;;;;12.06;95.34;101116.69;10195046;28;20043;-63
2022/10/03 04:18:57;;;;;;;7.97;6.88;;;;;;;12.11;95.63;101135.88;10192788;28;20058;-62
2022/10/03 04:24:20;;;;;;;11.00;6.43;;;;;;;12.06;94.40;101133.53;10195883;28;20150;-64
2022/10/03 04:29:42;;;;;;;11.38;6.88;;;;;;;12.10;95.39;101134.16;10192616;28;20047;-65
2022/10/03 04:35:08;;;;;;;9.07;6.55;;;;;;;12.13;95.46;101140.13;10193643;28;20051;-63
2022/10/03 04:40:44;;;;;;;13.57;7.10;;;;;;;12.12;95.46;101148.25;10192396;28;20051;-64
2022/10/03 04:46:39;;;;;;;14.27;7.70;;;;;;;12.26;94.08;101140.06;10192465;28;20454;-64
2022/10/03 04:52:02;;;;;;;8.60;6.53;;;;;;;12.22;93.47;101127.06;10171369;28;20043;-64
2022/10/03 04:57:34;;;;;;;10.80;7.65;;;;;;;12.12;92.71;101121.56;10196622;28;20054;-63
2022/10/03 05:02:51;;;;;;;11.05;6.20;;;;;;;12.28;95.26;101138.16;10195306;28;20043;-64
2022/10/03 05:08:22;;;;;;;11.32;6.53;;;;;;;12.40;93.48;101140.88;10192154;28;20665;-62
2022/10/03 05:14:02;;;;;;;11.38;6.97;;;;;;;12.36;93.47;101135.75;10191894;28;20063;-63
2022/10/03 05:19:35;;;;;;;11.23;6.63;;;;;;;12.44;93.95;101147.69;10193475;28;20043;-63
2022/10/03 05:24:57;;;;;;;7.68;6.80;;;;;;;12.42;93.92;101145.13;10211891;28;20043;-64
2022/10/03 05:30:07;;;;;;;8.60;6.57;;;;;;;12.50;94.47;101147.25;10203335;28;20598;-62
2022/10/03 05:35:18;;;;;;;8.70;6.75;;;;;;;12.43;93.67;101136.19;10187232;28;20962;-64
2022/10/03 05:40:23;;;;;;;10.02;6.82;;;;;;;12.46;93.69;101145.75;10190431;28;20419;-62
2022/10/03 05:46:01;;;;;;;10.57;7.47;;;;;;;12.46;94.10;101156.44;10169761;28;20051;-62
2022/10/03 05:51:38;;;;;;;9.55;7.35;;;;;;;12.45;94.24;101154.75;10173467;28;20125;-63
2022/10/03 05:56:52;;;;;;;8.10;6.38;;;;;;;12.41;94.58;101143.44;10182869;28;20770;-63
2022/10/03 06:01:59;;;;;;;10.03;7.00;;;;;;;12.40;93.53;101154.22;10181572;28;20157;-61
2022/10/03 06:07:22;;;;;;;12.73;7.07;;;;;;;12.42;94.32;101160.31;10182893;28;20054;-62
2022/10/03 06:12:53;;;;;;;13.13;7.70;;;;;;;12.55;94.02;101167.31;10183965;28;20058;-62
2022/10/03 06:18:07;;;;;;;10.43;7.30;;;;;;;12.58;93.65;101155.53;10182750;28;20047;-63
2022/10/03 06:23:36;;;;;;;9.98;7.25;;;;;;;12.75;93.13;101170.28;10209583;28;20062;-63
2022/10/03 06:28:50;;;;;;;11.88;8.75;;;;;;;12.75;91.76;101172.13;10179842;28;21037;-64
2022/10/03 06:34:27;;;;;;;11.73;8.48;;;;;;;12.72;92.67;101174.03;10178681;28;20059;-63
2022/10/03 06:39:50;;;;;;;12.57;9.48;;;;;;;12.79;92.96;101178.91;10180708;28;20064;-67
2022/10/03 06:45:12;;;;;;;12.48;8.48;;;;;;;12.77;93.35;101189.72;10177321;28;20058;-61
2022/10/03 06:50:35;;;;;;;11.07;8.77;;;;;;;12.74;91.97;101192.63;10180771;28;20062;-62
2022/10/03 06:55:51;;;;;;;9.10;7.45;;;;;;;12.81;89.22;101203.72;10178764;28;20073;-61
2022/10/03 07:01:03;;;;;;;8.15;7.15;;;;;;;12.80;87.17;101202.00;10179569;28;20457;-65
2022/10/03 07:06:19;;;;;;;9.13;7.78;;;;;;;12.80;87.35;101224.22;10181880;28;20733;-64
2022/10/03 07:11:56;;;;;;;9.65;6.45;;;;;;;12.77;86.80;101224.47;10195012;28;20588;-64
2022/10/03 07:17:21;;;;;;;8.98;7.15;;;;;;;12.75;86.29;101226.41;10176600;28;20107;-65
2022/10/03 07:22:46;;;;;;;8.40;7.07;;;;;;;12.84;87.38;101224.88;10176902;28;20118;-63
2022/10/03 07:28:13;;;;;;;9.90;7.70;;;;;;;13.20;88.17;101217.72;10177279;28;20043;-63
2022/10/03 07:33:28;;;;;;;10.43;7.60;;;;;;;13.56;84.96;101221.22;10212173;28;20118;-69
2022/10/03 07:38:57;;;;;;;;;;;;;;;13.77;86.82;101224.88;10186533;28;20055;-65
2022/10/03 07:44:08;;;;;;;9.02;7.32;;;;;;;13.99;84.60;101239.28;10185927;28;20006;-63
2022/10/03 07:49:33;;;;;;;10.40;9.23;;;;;;;14.12;84.93;101237.28;10188282;28;20055;-65
2022/10/03 07:54:53;;;;;;;12.18;8.90;;;;;;;14.40;83.84;101250.31;10187665;28;20322;-63
2022/10/03 08:00:16;;;;;;;12.07;10.05;;;;;;;14.63;83.08;101243.09;10186404;28;20047;-62
2022/10/03 08:05:55;;;;;;;13.75;9.43;;;;;;;14.88;79.97;101241.06;10189057;28;20506;-66
2022/10/03 08:11:21;;;;;;;9.27;8.18;;;;;;;15.17;81.25;101252.03;10185746;28;20062;-65
2022/10/03 08:16:30;;;;;;;10.85;8.02;;;;;;;15.42;78.74;101258.00;10200254;28;20558;-63
2022/10/03 08:21:49;;;;;;;11.50;7.70;;;;;;;15.35;75.58;101265.72;10184732;28;20051;-62
2022/10/03 08:26:54;;;;;;;10.57;7.72;;;;;;;15.84;74.62;101255.34;10185789;28;20059;-65
2022/10/03 08:32:14;;;;;;;13.77;7.07;;;;;;;16.02;73.72;101266.31;10186796;28;20541;-64
2022/10/03 08:37:51;;;;;;;11.65;8.73;;;;;;;16.29;71.50;101260.34;10187132;28;20058;-64
2022/10/03 08:43:31;;;;;;;12.55;7.38;;;;;;;16.49;71.57;101271.16;10174319;28;20070;-65
2022/10/03 08:48:55;;;;;;;10.40;7.00;;;;;;;16.33;68.61;101277.03;10181349;28;20060;-62
2022/10/03 08:54:07;;;;;;;11.93;6.90;;;;;;;16.93;68.04;101271.66;10186649;28;20042;-62
2022/10/03 08:59:29;;;;;;;13.90;7.85;;;;;;;17.48;66.34;101263.03;10187218;28;20054;-65
2022/10/03 09:05:25;;;;;;;10.32;6.00;;;;;;;18.07;64.10;101260.19;10184068;28;20059;-60
2022/10/03 09:10:54;;;;;;;11.88;5.78;;;;;;;18.00;62.98;101260.78;10183260;28;20054;-63
2022/10/03 09:16:28;;;;;;;6.32;4.28;;;;;;;19.24;58.77;101257.59;10185560;28;20526;-63
2022/10/03 09:22:16;;;;;;;8.48;4.40;;;;;;;19.85;56.01;101248.78;10180815;28;20051;-63
2022/10/03 09:27:36;;;;;;;7.38;3.50;;;;;;;20.29;54.96;101251.34;10178707;28;20051;-64
2022/10/03 09:32:55;;;;;;;4.88;2.80;;;;;;;19.00;53.70;101263.63;10180231;28;20048;-63
2022/10/03 09:38:21;;;;;;;6.20;3.65;;;;;;;17.97;59.08;101244.91;10184981;28;20062;-63
2022/10/03 09:43:41;;;;;;;5.40;3.97;;;;;;;17.92;59.83;101260.66;10184641;28;20047;-64
2022/10/03 09:49:08;;;;;;;5.45;3.13;;;;;;;17.76;59.77;101250.50;10178778;28;20047;-64
2022/10/03 09:54:22;;;;;;;5.40;2.78;;;;;;;17.89;59.61;101260.09;10184982;28;20066;-64
2022/10/03 09:59:26;;;;;;;4.43;2.40;;;;;;;18.08;57.43;101264.59;10185319;28;20050;-63
2022/10/03 10:04:39;;;;;;;4.30;2.22;;;;;;;17.87;56.59;101257.53;10199329;28;20528;-64
2022/10/03 10:10:15;;;;;;;6.45;2.67;;;;;;;19.60;53.28;101268.34;10182975;28;20054;-63
2022/10/03 10:15:35;;;;;;;6.38;1.30;;;;;;;18.85;53.46;101262.44;10184747;28;20133;-64
2022/10/03 10:21:07;;;;;;;3.40;1.38;;;;;;;18.22;53.33;101260.56;10185529;28;20492;-64
2022/10/03 10:26:47;;;;;;;4.70;1.40;;;;;;;17.96;57.00;101254.00;10184166;28;20553;-64
2022/10/03 10:32:13;;;;;;;3.47;1.50;;;;;;;19.40;51.78;101246.09;10183264;28;20058;-63
2022/10/03 10:37:57;;;;;;;4.57;1.23;;;;;;;20.90;47.15;101237.69;10180518;28;20123;-63
2022/10/03 10:43:25;;;;;;;4.80;1.35;;;;;;;20.76;46.33;101229.22;10181161;28;20122;-64
2022/10/03 10:48:51;;;;;;;3.60;1.27;;;;;;;20.45;45.57;101229.78;10180893;28;20050;-62
2022/10/03 10:54:05;;;;;;;4.30;1.85;;;;;;;19.45;48.99;101242.06;10178145;28;20047;-64
2022/10/03 10:59:45;;;;;;;4.53;1.42;;;;;;;19.59;50.28;101215.34;10183558;28;20634;-64
2022/10/03 11:05:28;;;;;;;2.83;1.38;;;;;;;21.42;46.44;101233.78;10182477;28;20429;-64
2022/10/03 11:10:38;;;;;;;4.07;1.70;;;;;;;21.24;47.02;101239.38;10179604;28;20334;-63
2022/10/03 11:15:53;;;;;;;4.47;1.58;;;;;;;21.17;45.89;101237.34;10182738;28;20047;-63
2022/10/03 11:21:34;;;;;;;3.30;1.35;;;;;;;21.29;44.22;101228.91;10182585;28;20043;-64
2022/10/03 11:27:09;;;;;;;4.32;1.55;;;;;;;24.52;40.50;101230.00;10179035;28;20066;-63
2022/10/03 11:32:41;;;;;;;2.97;1.35;;;;;;;26.81;34.91;101213.13;10183032;28;20074;-64
2022/10/03 11:37:56;;;;;;;3.38;1.13;;;;;;;31.21;28.67;101222.97;10180699;28;20698;-64
2022/10/03 11:43:26;;;;;;;2.30;1.23;;;;;;;35.37;21.12;101212.19;10168999;28;20974;-63
2022/10/03 11:48:38;;;;;;;3.33;1.33;;;;;;;37.22;18.64;101192.44;10172516;28;20058;-65
2022/10/03 11:53:42;;;;;;;1.80;0.85;;;;;;;33.70;22.85;101197.97;10171000;28;20065;-63
2022/10/03 11:59:22;;;;;;;2.85;1.00;;;;;;;31.28;25.38;101193.44;10177296;28;20055;-63
2022/10/03 12:04:41;;;;;;;3.03;1.13;;;;;;;26.92;31.18;101189.00;10175053;28;20059;-64
2022/10/03 12:10:13;;;;;;;3.60;0.80;;;;;;;24.31;35.38;101173.69;10175667;28;20550;-63
2022/10/03 12:15:43;;;;;;;3.10;0.68;;;;;;;23.03;37.54;101189.16;10176085;28;20134;-62
2022/10/03 12:21:10;;;;;;;4.95;1.23;;;;;;;21.84;40.77;101176.66;10185649;28;20622;-62
2022/10/03 12:26:18;;;;;;;4.07;1.45;;;;;;;20.97;42.77;101180.00;10186616;28;20047;-62
2022/10/03 12:31:38;;;;;;;2.78;1.40;;;;;;;20.34;44.93;101184.09;10186017;28;20227;-62
2022/10/03 12:36:52;;;;;;;2.90;1.60;;;;;;;20.00;45.60;101174.22;10182381;28;20064;-63
2022/10/03 12:42:21;;;;;;;2.08;1.33;;;;;;;19.82;47.67;101176.19;10186011;28;20055;-64
2022/10/03 12:47:31;;;;;;;5.82;2.42;;;;;;;19.60;45.53;101143.28;10178115;28;20130;-65
2022/10/03 12:53:13;;;;;;;3.13;1.63;;;;;;;19.55;47.72;101167.22;10177780;28;20074;-62
2022/10/03 12:58:33;;;;;;;5.27;1.90;;;;;;;19.49;47.56;101148.97;10182470;28;20054;-63
2022/10/03 13:03:51;;;;;;;4.95;1.77;;;;;;;19.58;46.64;101161.50;10181406;28;20075;-63
2022/10/03 13:09:10;;;;;;;4.03;1.60;;;;;;;19.46;49.14;101152.00;10183047;28;20147;-63
2022/10/03 13:14:40;;;;;;;5.78;1.75;;;;;;;19.14;48.51;101151.63;10183381;28;20072;-62
2022/10/03 13:19:57;;;;;;;5.75;2.88;;;;;;;18.93;48.24;101162.75;10179988;28;20051;-63
2022/10/03 13:25:20;;;;;;;4.28;1.42;;;;;;;18.64;47.13;101163.78;10180229;28;20140;-63
2022/10/03 13:30:31;;;;;;;3.33;1.60;;;;;;;18.51;49.55;101158.81;10182271;28;20067;-65
2022/10/03 13:36:00;;;;;;;3.58;1.52;;;;;;;18.46;47.33;101154.88;10196906;28;20199;-62
2022/10/03 13:41:14;;;;;;;3.35;1.70;;;;;;;18.36;48.39;101145.00;10184460;28;20732;-62
2022/10/03 13:46:24;;;;;;;4.22;1.85;;;;;;;18.41;47.84;101154.50;10183264;28;20131;-62
2022/10/03 13:51:38;;;;;;;4.97;1.70;;;;;;;18.29;49.07;101154.69;10196514;28;20621;-61
2022/10/03 13:56:44;;;;;;;4.50;1.60;;;;;;;18.25;52.54;101137.13;10194175;28;20106;-60
2022/10/03 14:01:59;;;;;;;3.53;1.52;;;;;;;18.32;51.28;101148.16;10196316;28;20308;-61
2022/10/03 14:07:17;;;;;;;3.47;1.55;;;;;;;18.33;51.63;101139.94;10169769;28;20853;-62
2022/10/03 14:12:27;;;;;;;5.38;1.63;;;;;;;18.19;50.07;101126.97;10171276;28;20063;-63
2022/10/03 14:18:10;;;;;;;4.68;1.73;;;;;;;18.01;50.93;101146.66;10180816;28;20165;-59
2022/10/03 14:23:23;;;;;;;2.50;1.37;;;;;;;17.93;52.03;101138.47;10180085;28;20066;-63
2022/10/03 14:29:00;;;;;;;4.80;2.93;;;;;;;17.55;52.10;101140.31;10180023;28;20467;-60
2022/10/03 14:34:34;;;;;;;6.57;2.33;;;;;;;17.55;53.14;101134.94;10180555;28;20047;-62
2022/10/03 14:39:50;;;;;;;4.47;2.78;;;;;;;17.57;52.04;101130.25;10206932;28;20119;-63
2022/10/03 14:45:02;;;;;;;2.45;1.70;;;;;;;17.69;52.19;101143.53;10180531;28;20095;-63
2022/10/03 14:50:05;;;;;;;3.80;1.90;;;;;;;17.50;52.16;101126.44;10184373;28;20545;-62
2022/10/03 14:55:17;;;;;;;3.65;1.83;;;;;;;17.72;53.56;101137.84;10175534;28;20158;-61
2022/10/03 15:00:44;;;;;;;4.60;2.28;;;;;;;17.65;54.89;101143.81;10178074;28;20517;-63
2022/10/03 15:06:09;;;;;;;7.07;3.08;;;;;;;17.33;52.30;101098.47;10178374;28;20573;-62
2022/10/03 15:11:15;;;;;;;4.03;1.85;;;;;;;17.41;52.53;101119.25;10178925;28;20058;-62
2022/10/03 15:16:20;;;;;;;3.80;1.95;;;;;;;17.31;52.45;101125.53;10180524;28;20063;-64
2022/10/03 15:21:25;;;;;;;4.13;2.33;;;;;;;17.02;53.21;101113.97;10178208;28;20512;-64
2022/10/03 15:26:31;;;;;;;4.75;2.42;;;;;;;17.02;54.10;101127.44;10176359;28;20058;-64
2022/10/03 15:31:37;;;;;;;3.47;2.22;;;;;;;16.96;53.71;101124.34;10177625;28;20054;-64
2022/10/03 15:36:44;;;;;;;4.55;2.30;;;;;;;16.89;55.39;101100.84;10175383;28;20447;-63
2022/10/03 15:41:54;;;;;;;5.28;1.98;;;;;;;16.89;55.72;101104.38;10172379;28;20078;-63
2022/10/03 15:47:03;;;;;;;6.53;2.78;;;;;;;16.82;56.59;101100.53;10170891;28;20062;-62
2022/10/03 15:52:19;;;;;;;3.88;2.28;;;;;;;16.92;57.75;101111.31;10169914;28;20058;-62
2022/10/03 15:57:26;;;;;;;4.88;2.60;;;;;;;16.84;55.83;101103.91;10180880;28;20139;-63
2022/10/03 16:02:38;;;;;;;6.25;3.22;;;;;;;16.98;57.24;101112.56;10182810;28;20062;-61
2022/10/03 16:07:49;;;;;;;5.57;3.00;;;;;;;16.77;56.30;101105.50;10186611;28;20058;-63
2022/10/03 16:12:59;;;;;;;3.85;2.90;;;;;;;16.74;55.70;101116.56;10183197;28;21266;-61
2022/10/03 16:18:08;;;;;;;4.28;3.40;;;;;;;16.72;57.26;101108.63;10183773;28;20658;-64
2022/10/03 16:23:20;;;;;;;6.35;3.83;;;;;;;16.72;56.86;101099.69;10186726;28;20059;-64
2022/10/03 16:28:29;;;;;;;4.28;3.20;;;;;;;16.57;56.78;101101.97;10185980;28;20085;-63
2022/10/03 16:33:35;;;;;;;4.75;3.17;;;;;;;16.50;57.61;101096.31;10185867;28;20051;-63
2022/10/03 16:38:45;;;;;;;6.13;3.15;;;;;;;16.41;57.71;101097.19;10186240;28;20059;-62
2022/10/03 16:44:23;;;;;;;4.15;3.38;;;;;;;16.25;59.40;101098.56;10198332;28;20047;-62
2022/10/03 16:54:46;;;;;;;5.55;3.80;;;;;;;16.06;59.17;101082.44;10179845;28;20605;-63
2022/10/03 16:59:50;;;;;;;4.72;3.47;;;;;;;16.11;60.40;101093.63;10184590;28;20171;-63
2022/10/03 17:05:00;;;;;;;5.20;3.88;;;;;;;16.10;62.96;101083.84;10184828;28;21485;-62
2022/10/03 17:10:02;;;;;;;10.15;5.43;;;;;;;16.00;61.64;101072.25;10184420;28;20043;-62
2022/10/03 17:15:07;;;;;;;6.32;4.40;;;;;;;16.00;61.87;101080.28;10186558;28;20732;-62
2022/10/03 17:20:21;;;;;;;8.70;5.72;;;;;;;15.98;63.23;101077.75;10185691;28;20055;-65
2022/10/03 17:25:49;;;;;;;7.72;5.20;;;;;;;15.87;60.92;101077.88;10182710;28;20058;-62
2022/10/03 17:30:58;;;;;;;6.72;5.25;;;;;;;15.73;63.58;101071.00;10180642;28;20450;-64
2022/10/03 17:36:21;;;;;;;10.73;4.75;;;;;;;15.73;62.11;101084.44;10181900;28;20058;-63
2022/10/03 17:41:38;;;;;;;7.03;5.68;;;;;;;15.59;62.45;101084.84;10185152;28;20433;-62
2022/10/03 17:46:49;;;;;;;10.60;5.80;;;;;;;15.54;64.35;101083.41;10179629;28;20083;-63
2022/10/03 17:51:54;;;;;;;8.75;6.30;;;;;;;15.49;65.74;101079.41;10185620;28;21977;-62
2022/10/03 17:57:04;;;;;;;9.27;7.57;;;;;;;15.40;66.80;101075.72;10177558;28;20059;-66
2022/10/03 18:02:20;;;;;;;11.93;7.95;;;;;;;15.26;68.28;101068.88;10185023;28;20055;-64
2022/10/03 18:07:25;;;;;;;9.25;7.30;;;;;;;15.20;69.69;101062.22;10181777;28;20063;-63
2022/10/03 18:12:29;;;;;;;10.55;7.53;;;;;;;15.12;68.93;101075.44;10178093;28;20071;-64
2022/10/03 18:17:50;;;;;;;10.30;8.60;;;;;;;15.05;71.87;101082.31;10181753;28;20379;-64
2022/10/03 18:23:09;;;;;;;11.27;8.70;;;;;;;15.01;71.43;101081.75;10180522;28;20843;-62
2022/10/03 18:28:30;;;;;;;9.45;6.45;;;;;;;14.93;71.58;101080.72;10179570;28;20086;-63
2022/10/03 18:33:49;;;;;;;9.88;7.57;;;;;;;14.85;71.39;101074.16;10181828;28;20130;-61
2022/10/03 18:38:57;;;;;;;10.02;8.90;;;;;;;14.83;71.82;101086.84;10183250;28;20166;-63
2022/10/03 18:44:00;;;;;;;10.75;8.18;;;;;;;14.76;71.14;101069.59;10198531;28;20057;-63
2022/10/03 18:49:24;;;;;;;9.77;8.27;;;;;;;14.74;70.81;101073.38;10179498;28;20058;-62
2022/10/03 18:54:58;;;;;;;11.30;7.90;;;;;;;14.65;72.13;101072.31;10179717;28;20398;-63
2022/10/03 19:00:14;;;;;;;11.32;9.25;;;;;;;14.42;72.68;101045.63;10178044;28;20162;-63
2022/10/03 19:05:49;;;;;;;10.68;9.45;;;;;;;14.48;73.89;101069.22;10179347;28;20064;-62
2022/10/03 19:11:00;;;;;;;11.30;7.45;;;;;;;14.43;73.51;101071.44;10193260;28;20522;-63
2022/10/03 19:16:45;;;;;;;9.13;7.32;;;;;;;14.44;73.94;101073.16;10179567;28;20071;-63
2022/10/03 19:21:47;;;;;;;;;;;;;;;14.30;73.79;101078.78;10192149;28;20059;-63
2022/10/03 19:26:54;;;;;;;9.10;6.63;;;;;;;14.29;74.06;101071.72;10181285;28;19958;-62
2022/10/03 19:32:21;;;;;;;9.40;6.38;;;;;;;14.31;72.61;101059.91;10179947;28;20066;-64
2022/10/03 19:37:37;;;;;;;10.57;8.68;;;;;;;14.25;74.38;101070.31;10179622;28;20062;-63
2022/10/03 19:42:52;;;;;;;11.48;6.85;;;;;;;14.23;73.22;101064.22;10181172;28;20048;-63
2022/10/03 19:48:07;;;;;;;8.88;6.22;;;;;;;14.23;75.22;101064.22;10180554;28;20062;-63
2022/10/03 19:53:13;;;;;;;9.13;6.13;;;;;;;14.12;73.44;101063.25;10176164;28;20070;-62
2022/10/03 19:58:19;;;;;;;9.00;7.13;;;;;;;13.96;73.52;101068.19;10189050;28;20070;-62
2022/10/03 20:03:30;;;;;;;8.55;6.85;;;;;;;13.94;73.04;101059.44;10177640;28;20119;-63
2022/10/03 20:08:43;;;;;;;10.90;7.95;;;;;;;13.90;73.22;101057.97;10176887;28;20052;-64
2022/10/03 20:13:47;;;;;;;11.68;7.35;;;;;;;13.78;72.79;101066.06;10177302;28;20055;-62
2022/10/03 20:18:52;;;;;;;10.48;7.90;;;;;;;13.64;74.80;101063.63;10180338;28;20047;-64
2022/10/03 20:23:56;;;;;;;15.48;9.35;;;;;;;13.74;74.81;101064.59;10180347;28;20059;-62
2022/10/03 20:29:09;;;;;;;12.55;8.40;;;;;;;13.78;75.85;101066.06;10181706;28;21666;-65
2022/10/03 20:34:19;;;;;;;9.20;8.20;;;;;;;13.67;74.37;101060.69;10177636;28;20043;-62
2022/10/03 20:39:30;;;;;;;11.07;8.00;;;;;;;13.72;76.79;101054.97;10184520;28;20102;-63
2022/10/03 20:45:00;;;;;;;11.68;7.80;;;;;;;13.70;76.05;101057.78;10185181;28;20054;-62
2022/10/03 20:50:11;;;;;;;11.55;8.35;;;;;;;13.57;77.42;101054.38;10180574;28;20062;-63
2022/10/03 20:55:30;;;;;;;11.13;8.65;;;;;;;13.45;75.74;101061.59;10185303;28;20047;-65
2022/10/03 21:00:40;;;;;;;11.60;8.60;;;;;;;13.36;76.84;101060.50;10177125;28;20130;-61
2022/10/03 21:05:56;;;;;;;11.32;9.30;;;;;;;13.44;76.28;101066.06;10180418;28;20048;-62
2022/10/03 21:11:01;;;;;;;11.90;9.52;;;;;;;13.35;77.64;101063.31;10183154;28;20588;-63
2022/10/03 21:16:16;;;;;;;12.43;9.55;;;;;;;13.35;77.02;101053.44;10183720;28;20426;-61
2022/10/03 21:21:37;;;;;;;10.43;9.43;;;;;;;13.08;77.83;101049.28;10181920;28;20047;-62
2022/10/03 21:27:09;;;;;;;12.90;9.77;;;;;;;12.87;78.09;101043.78;10183192;28;20059;-63
2022/10/03 21:32:46;;;;;;;11.32;10.07;;;;;;;12.72;79.66;101043.16;10185994;28;20620;-62
2022/10/03 21:38:28;;;;;;;14.02;10.43;;;;;;;12.78;79.22;101038.31;10182441;28;20051;-65
2022/10/03 21:43:49;;;;;;;11.23;9.68;;;;;;;12.61;79.02;101029.78;10182715;28;20063;-63
2022/10/03 21:49:05;;;;;;;13.93;10.20;;;;;;;12.55;80.14;101036.44;10183268;28;20066;-61
2022/10/03 21:54:52;;;;;;;12.60;10.10;;;;;;;12.73;79.98;101052.88;10186038;28;20664;-66
2022/10/03 22:00:12;;;;;;;12.38;10.05;;;;;;;12.72;80.29;101045.81;10191348;28;20074;-63
2022/10/03 22:05:36;;;;;;;13.75;10.07;;;;;;;12.81;80.55;101044.25;10188499;28;20062;-64
2022/10/03 22:10:45;;;;;;;13.90;9.75;;;;;;;12.77;78.68;101025.91;10192834;28;20056;-64
2022/10/03 22:16:02;;;;;;;12.18;9.43;;;;;;;12.58;79.37;101031.81;10190249;28;20054;-63
2022/10/03 22:21:17;;;;;;;10.55;9.02;;;;;;;12.52;80.08;101031.34;10191705;28;20051;-64
2022/10/03 22:26:23;;;;;;;11.90;9.52;;;;;;;12.55;79.67;101019.56;10183207;28;21106;-64
2022/10/03 22:31:58;;;;;;;10.68;9.25;;;;;;;12.39;82.16;101006.53;10190427;28;20064;-63
2022/10/03 22:37:00;;;;;;;11.93;9.60;;;;;;;12.44;79.64;101004.34;10186945;28;20047;-64
2022/10/03 22:42:04;;;;;;;11.75;9.07;;;;;;;12.19;80.69;100984.03;10202756;28;20418;-64
2022/10/03 22:47:15;;;;;;;12.77;10.53;;;;;;;12.32;80.32;100998.13;10186256;28;20063;-61
2022/10/03 22:52:24;;;;;;;11.13;10.02;;;;;;;12.29;81.11;100997.53;10187879;28;20055;-64
2022/10/03 22:57:27;;;;;;;20.48;14.43;;;;;;;12.20;81.02;100980.38;10196188;28;20082;-63
2022/10/03 23:02:47;;;;;;;22.73;15.40;;;;;;;12.27;81.89;100986.13;10228144;28;20142;-65
2022/10/03 23:08:00;;;;;;;27.88;22.08;;;;;;;12.28;80.50;100983.34;10214924;28;20086;-63
2022/10/03 23:13:09;;;;;;;26.87;22.57;;;;;;;12.11;80.50;100975.75;10220187;28;20062;-65
2022/10/03 23:18:14;;;;;;;20.17;18.02;;;;;;;12.02;83.42;100967.47;10190625;28;20076;-63
2022/10/03 23:23:23;;;;;;;20.95;15.65;;;;;;;12.05;80.89;100977.03;10185151;28;20047;-61
2022/10/03 23:28:36;;;;;;;16.65;13.85;;;;;;;11.73;82.72;100976.75;10191041;28;20071;-64
2022/10/03 23:33:37;;;;;;;20.67;13.60;;;;;;;11.66;83.48;100971.88;10185813;28;20787;-64
2022/10/03 23:38:38;;;;;;;17.55;12.20;;;;;;;11.60;83.53;100974.97;10186564;28;20074;-64
2022/10/03 23:43:43;;;;;;;19.20;12.80;;;;;;;11.48;83.02;100967.88;10200884;28;20055;-64
2022/10/03 23:48:57;;;;;;;14.55;11.82;;;;;;;11.38;83.30;100973.06;10202525;28;20047;-62
2022/10/03 23:54:02;;;;;;;15.73;10.63;;;;;;;11.28;82.48;100983.50;10184782;28;20046;-64
2022/10/03 23:59:04;;;;;;;17.30;10.43;;;;;;;11.18;83.40;100973.63;10186143;28;20151;-64
